Time;durP1;ratioP1;P1;durP2;ratioP2;P2;SDS_P1;SDS_P2;PMS_P1;PMS_P2;Temp;Humidity;BMP_temperature;BMP_pressure;BME280_temperature;BME280_humidity;BME280_pressure;Samples;Min_cycle;Max_cycle;Signal;HPM_P1;HPM_P2
2022/03/02 00:01:26;;;;;;;31.08;24.48;;;5.40;99.90;;;;;;5070160;28;20047;-71
2022/03/02 00:03:51;;;;;;;28.45;22.42;;;5.50;99.90;;;;;;5070882;28;20048;-70
2022/03/02 00:06:17;;;;;;;28.45;23.10;;;5.50;99.90;;;;;;5069958;28;20398;-70
2022/03/02 00:08:43;;;;;;;27.85;22.52;;;5.50;99.90;;;;;;5074432;28;20054;-70
2022/03/02 00:11:10;;;;;;;30.75;23.05;;;5.50;99.90;;;;;;5069703;28;20021;-70
2022/03/02 00:13:35;;;;;;;30.52;23.50;;;5.50;99.90;;;;;;5072449;28;20046;-70
2022/03/02 00:16:01;;;;;;;35.45;24.30;;;5.50;99.90;;;;;;5068335;28;20036;-70
2022/03/02 00:18:27;;;;;;;32.33;24.30;;;5.40;99.90;;;;;;5070486;28;20067;-70
2022/03/02 00:20:52;;;;;;;29.25;22.92;;;5.40;99.90;;;;;;5070450;28;20122;-70
2022/03/02 00:23:18;;;;;;;28.23;23.70;;;5.40;99.90;;;;;;5068380;28;20047;-70
2022/03/02 00:25:44;;;;;;;32.10;23.77;;;5.40;99.90;;;;;;5067196;28;20040;-70
2022/03/02 00:28:09;;;;;;;31.90;25.35;;;5.50;99.90;;;;;;5087990;28;20048;-70
2022/03/02 00:30:35;;;;;;;32.08;24.55;;;5.30;99.90;;;;;;5069173;28;20074;-71
2022/03/02 00:33:00;;;;;;;31.23;24.58;;;5.30;99.90;;;;;;5065641;28;20044;-70
2022/03/02 00:35:27;;;;;;;31.73;25.20;;;5.30;99.90;;;;;;5067642;28;20044;-70
2022/03/02 00:37:53;;;;;;;32.00;25.00;;;5.30;99.90;;;;;;5068226;28;20052;-70
2022/03/02 00:40:19;;;;;;;31.77;24.42;;;5.30;99.90;;;;;;5069096;28;20052;-70
2022/03/02 00:42:45;;;;;;;32.85;23.70;;;5.20;99.90;;;;;;5069205;28;20040;-70
2022/03/02 00:45:11;;;;;;;30.83;22.00;;;5.30;99.90;;;;;;5070256;28;20044;-71
2022/03/02 00:47:37;;;;;;;29.58;23.55;;;5.30;99.90;;;;;;5073954;28;20040;-70
2022/03/02 00:50:04;;;;;;;27.95;23.05;;;5.30;99.90;;;;;;5072914;28;20091;-70
2022/03/02 00:52:31;;;;;;;30.50;23.83;;;5.30;99.90;;;;;;5072098;28;20047;-70
2022/03/02 00:54:56;;;;;;;30.52;22.77;;;5.40;99.90;;;;;;5073381;28;20482;-70
2022/03/02 00:57:22;;;;;;;32.60;23.83;;;5.40;99.90;;;;;;5069280;28;20048;-70
2022/03/02 00:59:48;;;;;;;29.30;23.35;;;5.20;99.90;;;;;;5066950;28;20162;-70
2022/03/02 01:02:14;;;;;;;35.35;24.33;;;5.30;99.90;;;;;;5067357;28;20047;-71
2022/03/02 01:04:39;;;;;;;31.05;23.80;;;5.20;99.90;;;;;;5067942;28;20040;-70
2022/03/02 01:07:05;;;;;;;27.77;22.90;;;5.30;99.90;;;;;;5068016;28;20079;-70
2022/03/02 01:09:31;;;;;;;31.40;22.52;;;5.30;99.90;;;;;;5077750;28;20063;-70
2022/03/02 01:11:56;;;;;;;30.73;23.90;;;5.40;99.90;;;;;;5093673;28;20078;-70
2022/03/02 01:14:22;;;;;;;30.60;22.35;;;5.40;99.90;;;;;;5066022;28;20044;-70
2022/03/02 01:16:48;;;;;;;31.48;25.05;;;5.40;99.90;;;;;;5064448;28;20097;-70
2022/03/02 01:19:14;;;;;;;33.58;25.48;;;5.30;99.90;;;;;;5066257;28;20087;-70
2022/03/02 01:21:40;;;;;;;34.63;25.02;;;5.30;99.90;;;;;;5068574;28;20044;-70
2022/03/02 01:24:05;;;;;;;31.63;24.58;;;5.20;99.90;;;;;;5067912;28;20474;-70
2022/03/02 01:26:31;;;;;;;33.33;26.05;;;5.20;99.90;;;;;;5069706;28;20533;-70
2022/03/02 01:28:57;;;;;;;30.70;24.15;;;5.20;99.90;;;;;;5065219;28;20559;-71
2022/03/02 01:31:24;;;;;;;32.88;24.20;;;5.20;99.90;;;;;;5068856;28;20040;-70
2022/03/02 01:33:51;;;;;;;29.70;24.35;;;5.30;99.90;;;;;;5067514;28;20033;-71
2022/03/02 01:36:18;;;;;;;33.05;24.50;;;5.30;99.90;;;;;;5065949;28;20048;-70
2022/03/02 01:38:43;;;;;;;32.40;24.20;;;5.30;99.90;;;;;;5069805;28;20128;-70
2022/03/02 01:41:11;;;;;;;30.20;23.60;;;5.30;99.90;;;;;;5067478;28;20539;-70
2022/03/02 01:43:37;;;;;;;30.17;23.25;;;5.30;99.90;;;;;;5068002;28;20032;-71
2022/03/02 01:46:03;;;;;;;33.25;22.92;;;5.30;99.90;;;;;;5065043;28;20125;-71
2022/03/02 01:48:28;;;;;;;31.77;24.15;;;5.40;99.90;;;;;;5066941;28;20617;-70
2022/03/02 01:50:54;;;;;;;31.15;23.67;;;5.40;99.90;;;;;;5068593;28;20044;-70
2022/03/02 01:53:19;;;;;;;31.90;24.20;;;5.30;99.90;;;;;;5064964;28;20033;-71
2022/03/02 01:55:45;;;;;;;31.38;24.42;;;5.40;99.90;;;;;;5067797;28;20086;-70
2022/03/02 01:58:10;;;;;;;33.03;23.92;;;5.50;99.90;;;;;;5067285;28;20041;-70
2022/03/02 02:00:36;;;;;;;35.25;24.00;;;5.30;99.90;;;;;;5066040;28;20052;-70
2022/03/02 02:03:02;;;;;;;32.83;24.80;;;5.30;99.90;;;;;;5065293;28;20043;-70
2022/03/02 02:05:28;;;;;;;35.63;26.42;;;5.40;99.90;;;;;;5092041;28;20040;-70
2022/03/02 02:07:53;;;;;;;32.42;26.17;;;5.30;99.90;;;;;;5065940;28;20079;-70
2022/03/02 02:10:19;;;;;;;35.58;25.95;;;5.20;99.90;;;;;;5062815;28;20060;-70
2022/03/02 02:12:45;;;;;;;38.35;26.83;;;5.20;99.90;;;;;;5068047;28;20091;-70
2022/03/02 02:15:11;;;;;;;33.78;24.92;;;5.10;99.90;;;;;;5063866;28;20123;-70
2022/03/02 02:17:38;;;;;;;34.38;26.63;;;5.10;99.90;;;;;;5068461;28;20056;-70
2022/03/02 02:20:06;;;;;;;35.00;26.33;;;5.10;99.90;;;;;;5066881;28;20045;-70
2022/03/02 02:22:36;;;;;;;34.72;27.10;;;5.00;99.90;;;;;;5067479;28;20040;-71
2022/03/02 02:25:03;;;;;;;32.40;25.20;;;5.00;99.90;;;;;;5066630;28;20036;-70
2022/03/02 02:27:28;;;;;;;33.17;25.65;;;5.00;99.90;;;;;;5064949;28;20135;-70
2022/03/02 02:29:55;;;;;;;36.55;24.63;;;5.00;99.90;;;;;;5065253;28;20625;-70
2022/03/02 02:32:21;;;;;;;36.38;25.92;;;5.00;99.90;;;;;;5067291;28;20518;-70
2022/03/02 02:34:47;;;;;;;33.28;26.02;;;5.00;99.90;;;;;;5067712;28;20051;-70
2022/03/02 02:37:13;;;;;;;35.63;26.00;;;5.00;99.90;;;;;;5070017;28;20047;-70
2022/03/02 02:39:39;;;;;;;34.95;25.63;;;5.00;99.90;;;;;;5063066;28;20028;-70
2022/03/02 02:42:06;;;;;;;37.33;26.67;;;5.00;99.90;;;;;;5065083;28;20044;-70
2022/03/02 02:44:34;;;;;;;36.10;25.35;;;5.00;99.90;;;;;;5065380;28;20040;-70
2022/03/02 02:46:59;;;;;;;36.03;26.08;;;5.00;99.90;;;;;;5065190;28;20119;-70
2022/03/02 02:49:25;;;;;;;35.97;26.48;;;5.10;99.90;;;;;;5064480;28;20113;-70
2022/03/02 02:51:53;;;;;;;36.53;27.13;;;5.00;99.90;;;;;;5067642;28;20475;-70
2022/03/02 02:54:20;;;;;;;38.92;26.63;;;5.00;99.90;;;;;;5066606;28;20032;-70
2022/03/02 02:56:46;;;;;;;33.65;26.30;;;4.90;99.90;;;;;;5066484;28;20032;-70
2022/03/02 02:59:11;;;;;;;37.40;26.23;;;4.90;99.90;;;;;;5069519;28;20051;-70
2022/03/02 03:01:37;;;;;;;34.50;26.13;;;4.90;99.90;;;;;;5068188;28;20044;-70
2022/03/02 03:04:04;;;;;;;36.75;28.40;;;4.80;99.90;;;;;;5068428;28;20410;-70
2022/03/02 03:06:30;;;;;;;36.25;26.50;;;4.80;99.90;;;;;;5066414;28;20127;-70
2022/03/02 03:08:56;;;;;;;36.28;26.95;;;4.80;99.90;;;;;;5068773;28;20143;-70
2022/03/02 03:11:21;;;;;;;38.72;28.73;;;4.80;99.90;;;;;;5064085;28;20037;-70
2022/03/02 03:13:47;;;;;;;38.22;29.85;;;4.80;99.90;;;;;;5063748;28;20128;-70
2022/03/02 03:16:13;;;;;;;39.67;30.50;;;4.80;99.90;;;;;;5094755;28;20029;-70
2022/03/02 03:18:39;;;;;;;44.85;30.65;;;4.80;99.90;;;;;;5068149;28;20666;-70
2022/03/02 03:21:04;;;;;;;40.75;29.77;;;4.80;99.90;;;;;;5064920;28;20082;-70
2022/03/02 03:23:30;;;;;;;38.25;29.33;;;4.70;99.90;;;;;;5066957;28;20075;-70
2022/03/02 03:25:55;;;;;;;40.47;31.10;;;4.70;99.90;;;;;;5065976;28;20040;-70
2022/03/02 03:28:21;;;;;;;45.83;29.88;;;4.70;99.90;;;;;;5063095;28;20079;-70
2022/03/02 03:30:47;;;;;;;41.72;29.90;;;4.70;99.90;;;;;;5065067;28;20039;-70
2022/03/02 03:33:12;;;;;;;42.90;30.23;;;4.70;99.90;;;;;;5069035;28;20037;-70
2022/03/02 03:35:38;;;;;;;43.05;29.23;;;4.60;99.90;;;;;;5068147;28;20143;-70
2022/03/02 03:38:04;;;;;;;37.78;28.83;;;4.60;99.90;;;;;;5065144;28;20050;-70
2022/03/02 03:40:29;;;;;;;43.35;29.00;;;4.60;99.90;;;;;;5067511;28;20399;-70
2022/03/02 03:42:56;;;;;;;42.42;31.13;;;4.60;99.90;;;;;;5066716;28;20041;-70
2022/03/02 03:45:22;;;;;;;41.47;29.15;;;4.60;99.90;;;;;;5066354;28;20041;-70
2022/03/02 03:47:48;;;;;;;43.83;31.13;;;4.60;99.90;;;;;;5075958;28;20177;-70
2022/03/02 03:50:14;;;;;;;41.72;29.38;;;4.50;99.90;;;;;;5068718;28;20052;-70
2022/03/02 03:52:41;;;;;;;41.97;29.20;;;4.60;99.90;;;;;;5070708;28;20032;-70
2022/03/02 03:55:08;;;;;;;37.55;29.45;;;4.60;99.90;;;;;;5099113;28;20037;-70
2022/03/02 03:57:34;;;;;;;38.50;28.77;;;4.60;99.90;;;;;;5072246;28;20041;-70
2022/03/02 04:00:00;;;;;;;43.40;30.92;;;4.60;99.90;;;;;;5068442;28;20044;-70
2022/03/02 04:02:26;;;;;;;42.60;31.48;;;4.50;99.90;;;;;;5071539;28;20045;-70
2022/03/02 04:04:51;;;;;;;44.50;32.15;;;4.50;99.90;;;;;;5070265;28;20032;-69
2022/03/02 04:07:17;;;;;;;48.80;35.03;;;4.50;99.90;;;;;;5069439;28;20056;-71
2022/03/02 04:09:42;;;;;;;55.40;39.47;;;4.60;99.90;;;;;;5072983;28;20531;-70
2022/03/02 04:12:08;;;;;;;54.08;39.65;;;4.50;99.90;;;;;;5071079;28;20037;-70
2022/03/02 04:14:34;;;;;;;46.45;37.67;;;4.70;99.90;;;;;;5071277;28;20051;-70
2022/03/02 04:16:59;;;;;;;52.65;36.60;;;4.40;99.90;;;;;;5099341;28;20045;-70
2022/03/02 04:19:25;;;;;;;50.70;35.55;;;4.40;99.90;;;;;;5081729;28;20139;-70
2022/03/02 04:21:51;;;;;;;48.58;34.08;;;4.40;99.90;;;;;;5070651;28;20461;-70
2022/03/02 04:24:16;;;;;;;47.53;36.85;;;4.40;99.90;;;;;;5068702;28;20107;-70
2022/03/02 04:26:42;;;;;;;42.63;32.85;;;4.30;99.90;;;;;;5069983;28;20036;-70
2022/03/02 04:29:07;;;;;;;46.67;33.55;;;4.40;99.90;;;;;;5070012;28;20055;-71
2022/03/02 04:31:33;;;;;;;48.97;32.95;;;4.30;99.90;;;;;;5065153;28;20040;-70
2022/03/02 04:33:59;;;;;;;44.03;31.27;;;4.30;99.90;;;;;;5069013;28;20059;-70
2022/03/02 04:36:24;;;;;;;46.60;32.67;;;4.30;99.90;;;;;;5068099;28;20048;-71
2022/03/02 04:38:50;;;;;;;44.03;30.73;;;4.30;99.90;;;;;;5069212;28;20064;-70
2022/03/02 04:41:15;;;;;;;44.90;33.10;;;4.20;99.90;;;;;;5067127;28;20437;-70
2022/03/02 04:43:41;;;;;;;43.08;31.67;;;4.20;99.90;;;;;;5067827;28;20036;-70
2022/03/02 04:46:06;;;;;;;49.10;33.60;;;4.20;99.90;;;;;;5078351;28;20482;-70
2022/03/02 04:48:32;;;;;;;45.65;32.53;;;4.10;99.90;;;;;;5068244;28;20072;-70
2022/03/02 04:50:58;;;;;;;44.58;31.20;;;4.10;99.90;;;;;;5068280;28;20036;-70
2022/03/02 04:53:24;;;;;;;43.10;31.17;;;4.10;99.90;;;;;;5070039;28;20048;-70
2022/03/02 04:55:50;;;;;;;43.63;31.40;;;4.00;99.90;;;;;;5099977;28;20047;-70
2022/03/02 04:58:16;;;;;;;40.53;30.38;;;4.10;99.90;;;;;;5071924;28;20044;-70
2022/03/02 05:00:42;;;;;;;43.70;30.20;;;4.10;99.90;;;;;;5069568;28;20135;-71
2022/03/02 05:03:08;;;;;;;39.45;30.13;;;4.00;99.90;;;;;;5068065;28;20033;-70
2022/03/02 05:05:36;;;;;;;41.50;30.95;;;4.00;99.90;;;;;;5069336;28;20040;-71
2022/03/02 05:08:03;;;;;;;41.55;30.23;;;4.00;99.90;;;;;;5067239;28;20042;-70
2022/03/02 05:10:29;;;;;;;39.08;29.27;;;3.90;99.90;;;;;;5070198;28;20040;-70
2022/03/02 05:12:56;;;;;;;40.72;30.30;;;3.90;99.90;;;;;;5071311;28;20055;-70
2022/03/02 05:15:22;;;;;;;48.40;32.10;;;3.90;99.90;;;;;;5066214;28;20131;-70
2022/03/02 05:17:49;;;;;;;42.97;32.20;;;3.90;99.90;;;;;;5064947;28;20040;-70
2022/03/02 05:20:16;;;;;;;46.35;33.38;;;3.80;99.90;;;;;;5067820;28;20445;-70
2022/03/02 05:22:41;;;;;;;40.78;31.27;;;3.80;99.90;;;;;;5062170;28;20032;-71
2022/03/02 05:25:09;;;;;;;42.25;31.55;;;3.80;99.90;;;;;;5067346;28;20032;-70
2022/03/02 05:27:35;;;;;;;42.10;30.17;;;3.70;99.90;;;;;;5067400;28;20770;-70
2022/03/02 05:30:03;;;;;;;43.35;30.30;;;3.80;99.90;;;;;;5067390;28;20068;-70
2022/03/02 05:32:28;;;;;;;43.25;31.73;;;3.80;99.90;;;;;;5065805;28;20137;-70
2022/03/02 05:34:54;;;;;;;46.60;31.23;;;3.70;99.90;;;;;;5066581;28;20037;-70
2022/03/02 05:37:20;;;;;;;44.83;31.85;;;3.70;99.90;;;;;;5064223;28;21874;-70
2022/03/02 05:39:46;;;;;;;47.33;32.38;;;3.70;99.90;;;;;;5067795;28;20479;-70
2022/03/02 05:42:11;;;;;;;51.03;32.13;;;3.60;99.90;;;;;;5067753;28;20499;-70
2022/03/02 05:44:37;;;;;;;49.38;31.33;;;3.60;99.90;;;;;;5067188;28;20028;-70
2022/03/02 05:47:03;;;;;;;45.70;32.45;;;3.50;99.90;;;;;;5067236;28;20082;-71
2022/03/02 05:49:29;;;;;;;46.08;31.02;;;3.50;99.90;;;;;;5069441;28;20040;-70
2022/03/02 05:51:55;;;;;;;43.95;32.75;;;3.40;99.90;;;;;;5067561;28;20055;-70
2022/03/02 05:54:20;;;;;;;43.70;32.30;;;3.30;99.90;;;;;;5066028;28;20050;-70
2022/03/02 05:56:46;;;;;;;45.22;30.95;;;3.20;99.90;;;;;;5069611;28;20446;-70
2022/03/02 05:59:14;;;;;;;48.53;33.42;;;3.10;99.90;;;;;;5097045;28;20115;-70
2022/03/02 06:01:40;;;;;;;47.30;33.95;;;2.90;99.90;;;;;;5067465;28;20047;-70
2022/03/02 06:04:06;;;;;;;48.50;34.28;;;2.80;99.90;;;;;;5068746;28;20060;-70
2022/03/02 06:06:34;;;;;;;49.42;33.58;;;2.80;99.90;;;;;;5068087;28;20032;-70
2022/03/02 06:09:00;;;;;;;46.42;30.25;;;2.70;99.90;;;;;;5068360;28;20117;-70
2022/03/02 06:11:27;;;;;;;44.20;32.15;;;2.80;99.90;;;;;;5067268;28;20143;-70
2022/03/02 06:13:54;;;;;;;39.75;28.83;;;2.90;99.90;;;;;;5068796;28;20040;-70
2022/03/02 06:16:20;;;;;;;46.65;30.08;;;2.80;99.90;;;;;;5068256;28;20036;-71
2022/03/02 06:18:46;;;;;;;44.85;28.58;;;2.80;99.90;;;;;;5067443;28;20150;-70
2022/03/02 06:21:17;;;;;;;43.50;29.90;;;2.80;99.90;;;;;;5067552;28;20036;-70
2022/03/02 06:23:43;;;;;;;43.88;30.55;;;2.70;99.90;;;;;;5046939;28;20537;-70
2022/03/02 06:26:09;;;;;;;45.08;31.75;;;2.70;99.90;;;;;;5065952;28;20052;-70
2022/03/02 06:28:35;;;;;;;45.67;31.70;;;2.70;99.90;;;;;;5073336;28;20458;-70
2022/03/02 06:31:00;;;;;;;46.15;31.60;;;2.60;99.90;;;;;;5061346;28;20036;-70
2022/03/02 06:33:26;;;;;;;42.97;30.52;;;2.60;99.90;;;;;;5065940;28;20099;-70
2022/03/02 06:35:52;;;;;;;46.63;30.10;;;2.50;99.90;;;;;;5069447;28;20036;-70
2022/03/02 06:38:20;;;;;;;41.95;30.48;;;2.60;99.90;;;;;;5068990;28;20479;-70
2022/03/02 06:41:27;;;;;;;48.28;32.47;;;2.70;99.90;;;;;;5070975;28;20048;-70
2022/03/02 06:44:08;;;;;;;47.65;31.20;;;2.50;99.90;;;;;;5066774;28;20171;-70
2022/03/02 06:46:59;;;;;;;45.50;31.77;;;2.60;99.90;;;;;;5067265;28;20085;-70
2022/03/02 06:49:36;;;;;;;47.97;30.83;;;2.60;99.90;;;;;;5062813;28;20044;-70
2022/03/02 06:52:03;;;;;;;44.45;29.02;;;2.50;99.90;;;;;;5067646;28;20033;-70
2022/03/02 06:54:31;;;;;;;44.80;31.88;;;2.50;99.90;;;;;;5084621;28;20032;-70
2022/03/02 06:57:00;;;;;;;48.72;31.85;;;2.50;99.90;;;;;;5062936;28;20055;-70
2022/03/02 06:59:40;;;;;;;47.60;31.83;;;2.40;99.90;;;;;;5063007;28;20049;-70
2022/03/02 07:02:07;;;;;;;53.75;33.63;;;2.40;99.90;;;;;;5064417;28;20036;-70
2022/03/02 07:04:42;;;;;;;48.20;32.20;;;2.40;99.90;;;;;;5066500;28;20051;-69
2022/03/02 07:07:09;;;;;;;45.83;32.13;;;2.40;99.90;;;;;;5063899;28;20079;-70
2022/03/02 07:09:34;;;;;;;45.78;31.92;;;2.40;99.90;;;;;;5067370;28;20037;-72
2022/03/02 07:12:02;;;;;;;48.22;31.20;;;2.40;99.90;;;;;;5068607;28;20054;-71
2022/03/02 07:14:30;;;;;;;46.42;29.77;;;2.40;99.90;;;;;;5066135;28;20045;-71
2022/03/02 07:17:01;;;;;;;41.50;28.27;;;2.40;99.90;;;;;;5063658;28;20036;-71
2022/03/02 07:19:27;;;;;;;48.28;31.52;;;2.50;99.90;;;;;;5067370;28;20064;-72
2022/03/02 07:21:54;;;;;;;45.40;30.83;;;2.60;99.90;;;;;;5069341;28;20064;-72
2022/03/02 07:24:22;;;;;;;45.20;29.77;;;2.70;99.90;;;;;;5071577;28;20536;-71
2022/03/02 07:26:54;;;;;;;47.30;31.17;;;2.80;99.90;;;;;;5071961;28;20068;-72
2022/03/02 07:29:23;;;;;;;46.42;29.75;;;2.90;99.90;;;;;;5071273;28;20052;-71
2022/03/02 07:31:53;;;;;;;45.50;31.88;;;3.00;99.90;;;;;;5066619;28;20041;-71
2022/03/02 07:34:19;;;;;;;46.15;30.73;;;3.10;99.90;;;;;;5067156;28;20383;-71
2022/03/02 07:36:46;;;;;;;46.17;31.33;;;3.10;99.90;;;;;;5068876;28;20479;-71
2022/03/02 07:39:12;;;;;;;49.45;31.42;;;3.20;99.90;;;;;;5067857;28;20605;-71
2022/03/02 07:41:37;;;;;;;52.10;30.98;;;3.30;99.90;;;;;;5067557;28;20127;-71
2022/03/02 07:44:04;;;;;;;45.03;30.58;;;3.30;99.90;;;;;;5070720;28;20033;-71
2022/03/02 07:46:30;;;;;;;45.88;31.60;;;3.50;99.90;;;;;;5067435;28;20037;-71
2022/03/02 07:48:57;;;;;;;43.17;30.88;;;3.60;99.90;;;;;;5069087;28;20498;-71
2022/03/02 07:51:23;;;;;;;41.05;29.80;;;3.60;99.90;;;;;;5068565;28;20045;-72
2022/03/02 07:53:51;;;;;;;43.72;29.95;;;3.60;99.90;;;;;;5069209;28;20089;-71
2022/03/02 07:56:18;;;;;;;44.05;28.50;;;3.70;99.90;;;;;;5070063;28;20056;-72
2022/03/02 07:58:44;;;;;;;37.47;27.85;;;3.90;99.90;;;;;;5068321;28;20490;-71
2022/03/02 08:01:15;;;;;;;37.88;27.85;;;3.90;99.90;;;;;;5070409;28;20040;-71
2022/03/02 08:03:42;;;;;;;36.63;27.15;;;4.00;99.90;;;;;;5067109;28;20072;-71
2022/03/02 08:06:08;;;;;;;38.55;26.95;;;4.10;99.90;;;;;;5068744;28;20395;-71
2022/03/02 08:08:35;;;;;;;36.45;25.95;;;4.20;99.90;;;;;;5067261;28;21006;-72
2022/03/02 08:11:02;;;;;;;40.90;26.13;;;4.30;99.90;;;;;;5070311;28;20483;-71
2022/03/02 08:13:33;;;;;;;36.67;26.60;;;4.40;99.90;;;;;;5066173;28;20036;-71
2022/03/02 08:15:59;;;;;;;35.33;26.30;;;4.40;99.90;;;;;;5063728;28;20036;-72
2022/03/02 08:18:25;;;;;;;38.33;25.83;;;4.40;99.90;;;;;;5068160;28;20533;-71
2022/03/02 08:20:53;;;;;;;37.90;26.33;;;4.50;99.90;;;;;;5068402;28;20491;-72
2022/03/02 08:23:20;;;;;;;36.55;26.20;;;4.50;99.90;;;;;;5069295;28;20036;-72
2022/03/02 08:25:55;;;;;;;34.50;25.30;;;4.60;99.90;;;;;;5065349;28;20124;-72
2022/03/02 08:28:22;;;;;;;32.50;24.30;;;4.70;99.90;;;;;;5067118;28;20089;-72
2022/03/02 08:30:53;;;;;;;34.55;25.10;;;4.70;99.90;;;;;;5069830;28;20059;-72
2022/03/02 08:33:21;;;;;;;34.33;25.60;;;4.70;99.90;;;;;;5066027;28;20036;-72
2022/03/02 08:35:51;;;;;;;37.00;25.10;;;4.90;99.90;;;;;;5065547;28;20044;-71
2022/03/02 08:38:17;;;;;;;35.13;25.45;;;4.90;99.90;;;;;;5067252;28;20075;-72
2022/03/02 08:40:43;;;;;;;34.10;24.50;;;5.00;99.90;;;;;;5067924;28;20717;-71
2022/03/02 08:43:09;;;;;;;35.88;24.92;;;5.10;99.90;;;;;;5069035;28;20048;-71
2022/03/02 08:45:35;;;;;;;30.63;22.52;;;5.20;99.90;;;;;;5064968;28;20032;-72
2022/03/02 08:48:03;;;;;;;32.47;23.73;;;5.30;99.90;;;;;;5067352;28;20118;-72
2022/03/02 08:50:29;;;;;;;29.30;21.70;;;5.30;99.90;;;;;;5068381;28;20086;-72
2022/03/02 08:52:56;;;;;;;31.85;23.17;;;5.40;99.90;;;;;;5061174;28;20021;-72
2022/03/02 08:55:24;;;;;;;34.88;24.00;;;5.50;99.90;;;;;;5062594;28;20101;-72
2022/03/02 08:57:51;;;;;;;30.83;22.33;;;5.60;99.90;;;;;;5065921;28;20032;-72
2022/03/02 09:00:17;;;;;;;30.30;22.23;;;5.60;99.90;;;;;;5065967;28;20036;-72
2022/03/02 09:02:46;;;;;;;31.38;24.73;;;5.70;99.90;;;;;;5083528;28;20036;-72
2022/03/02 09:05:11;;;;;;;31.80;23.05;;;5.90;99.90;;;;;;5066053;28;20037;-72
2022/03/02 09:07:37;;;;;;;29.80;22.50;;;6.00;99.90;;;;;;5065648;28;20049;-72
2022/03/02 09:10:04;;;;;;;31.15;22.80;;;6.00;99.90;;;;;;5067194;28;20128;-72
2022/03/02 09:12:30;;;;;;;30.33;21.20;;;6.10;99.90;;;;;;5068384;28;20106;-72
2022/03/02 09:14:56;;;;;;;29.42;20.50;;;6.20;99.90;;;;;;5066809;28;20488;-72
2022/03/02 09:17:25;;;;;;;31.90;21.02;;;6.30;99.90;;;;;;5097101;27;20081;-71
2022/03/02 09:19:55;;;;;;;28.23;21.23;;;6.40;99.90;;;;;;5065368;28;20036;-72
2022/03/02 09:22:24;;;;;;;29.65;21.73;;;6.60;99.90;;;;;;5057841;28;20032;-73
2022/03/02 09:24:50;;;;;;;27.60;20.23;;;6.70;99.90;;;;;;5066337;28;20119;-72
2022/03/02 09:27:17;;;;;;;31.05;20.60;;;6.80;99.90;;;;;;5065864;28;20106;-72
2022/03/02 09:29:46;;;;;;;26.05;20.77;;;6.90;99.90;;;;;;5065165;28;20036;-73
2022/03/02 09:32:13;;;;;;;26.13;19.63;;;6.90;99.90;;;;;;5100553;28;20127;-72
2022/03/02 09:34:45;;;;;;;24.42;19.45;;;6.90;99.90;;;;;;5065891;28;20490;-73
2022/03/02 09:37:12;;;;;;;25.20;19.08;;;7.00;99.90;;;;;;5067421;28;20434;-73
2022/03/02 09:39:38;;;;;;;25.13;19.55;;;7.00;99.90;;;;;;5095083;28;20041;-73
2022/03/02 09:42:09;;;;;;;29.20;18.98;;;7.00;99.90;;;;;;5066373;28;20089;-72
2022/03/02 09:44:52;;;;;;;26.15;20.23;;;7.20;99.90;;;;;;5067097;28;20126;-73
2022/03/02 09:47:21;;;;;;;26.02;20.17;;;7.20;99.90;;;;;;5066623;28;20048;-72
2022/03/02 09:49:53;;;;;;;29.50;19.38;;;7.30;99.90;;;;;;5066389;28;20052;-72
2022/03/02 09:52:20;;;;;;;24.58;18.95;;;7.40;99.90;;;;;;5067365;28;20449;-73
2022/03/02 09:54:50;;;;;;;24.33;18.27;;;7.40;99.90;;;;;;5067285;28;20028;-73
2022/03/02 09:57:18;;;;;;;22.67;18.45;;;7.50;99.90;;;;;;5066637;28;20471;-73
2022/03/02 09:59:49;;;;;;;26.73;18.83;;;7.50;99.90;;;;;;5098310;28;20517;-73
2022/03/02 10:02:38;;;;;;;24.80;18.10;;;7.50;99.90;;;;;;5064102;28;20036;-72
2022/03/02 10:05:08;;;;;;;23.75;18.27;;;7.70;99.90;;;;;;5066452;28;20514;-73
2022/03/02 10:07:36;;;;;;;27.25;18.95;;;7.70;99.90;;;;;;5065665;28;20074;-73
2022/03/02 10:10:08;;;;;;;21.13;17.02;;;7.80;99.90;;;;;;5064903;28;20044;-73
2022/03/02 10:12:34;;;;;;;26.60;17.73;;;7.80;99.90;;;;;;5093175;28;20511;-73
2022/03/02 10:15:00;;;;;;;20.52;15.88;;;7.90;99.90;;;;;;5068253;28;20178;-72
2022/03/02 10:17:36;;;;;;;23.63;16.38;;;8.00;99.70;;;;;;5064742;28;20036;-73
2022/03/02 10:20:22;;;;;;;;;;;8.00;95.60;;;;;;5066166;28;20089;-73
2022/03/02 10:23:22;;;;;;;21.90;15.32;;;8.20;95.50;;;;;;5066074;28;20011;-73
2022/03/02 10:26:12;;;;;;;24.25;16.17;;;8.00;94.50;;;;;;5068009;28;20408;-73
2022/03/02 10:28:40;;;;;;;21.67;15.60;;;8.10;94.00;;;;;;5067865;28;20705;-73
2022/03/02 10:31:23;;;;;;;18.67;15.10;;;8.10;92.10;;;;;;5061660;28;20131;-73
2022/03/02 10:34:02;;;;;;;18.58;14.48;;;8.10;91.10;;;;;;5065274;28;20051;-73
2022/03/02 10:36:30;;;;;;;18.65;14.90;;;8.20;93.10;;;;;;5068234;28;20395;-73
2022/03/02 10:39:04;;;;;;;21.27;15.82;;;8.30;92.30;;;;;;5066061;28;20039;-73
2022/03/02 10:41:35;;;;;;;20.17;15.98;;;8.30;91.40;;;;;;5063835;28;20491;-73
2022/03/02 10:44:46;;;;;;;20.75;13.88;;;8.30;89.10;;;;;;5064827;28;20078;-72
2022/03/02 10:47:16;;;;;;;18.27;14.15;;;8.40;88.90;;;;;;5064161;28;20048;-73
2022/03/02 10:49:44;;;;;;;22.35;15.77;;;8.50;90.20;;;;;;5066753;28;20040;-73
2022/03/02 10:52:14;;;;;;;20.92;16.00;;;8.40;88.00;;;;;;5063549;28;20036;-73
2022/03/02 10:54:41;;;;;;;22.05;16.65;;;8.50;90.30;;;;;;5066423;28;20117;-72
2022/03/02 10:57:11;;;;;;;17.02;13.68;;;8.70;91.40;;;;;;5064336;28;20076;-73
2022/03/02 10:59:38;;;;;;;21.63;14.75;;;8.70;88.80;;;;;;5064895;28;20037;-72
2022/03/02 11:02:04;;;;;;;19.67;14.82;;;8.70;87.00;;;;;;5064956;28;20032;-73
2022/03/02 11:04:30;;;;;;;23.80;15.90;;;8.80;88.40;;;;;;5065955;28;20044;-72
2022/03/02 11:06:56;;;;;;;20.42;14.88;;;8.80;85.60;;;;;;5066744;28;20043;-73
2022/03/02 11:09:25;;;;;;;20.83;14.32;;;8.90;86.70;;;;;;5066521;28;20407;-72
2022/03/02 11:11:54;;;;;;;22.00;15.20;;;9.00;87.90;;;;;;5059397;28;21512;-73
2022/03/02 11:14:20;;;;;;;22.00;14.25;;;9.10;87.90;;;;;;5066928;28;21138;-72
2022/03/02 11:16:47;;;;;;;21.45;14.77;;;9.20;85.40;;;;;;5061971;28;20037;-72
2022/03/02 11:19:15;;;;;;;25.00;14.85;;;9.30;86.30;;;;;;5044331;28;20052;-73
2022/03/02 11:21:42;;;;;;;17.92;14.93;;;9.30;82.70;;;;;;5065047;28;20067;-72
2022/03/02 11:24:14;;;;;;;19.85;14.25;;;9.30;84.70;;;;;;5064864;28;20550;-72
2022/03/02 11:26:41;;;;;;;18.98;14.30;;;9.40;82.40;;;;;;5063564;28;20056;-72
2022/03/02 11:29:15;;;;;;;19.30;15.18;;;9.50;84.10;;;;;;5093904;28;20078;-73
2022/03/02 11:31:45;;;;;;;21.05;14.77;;;9.50;83.60;;;;;;5063709;28;20044;-73
2022/03/02 11:34:15;;;;;;;20.95;16.63;;;9.60;85.30;;;;;;5064001;28;20032;-72
2022/03/02 11:36:45;;;;;;;19.33;15.77;;;9.60;81.60;;;;;;5044773;28;20055;-72
2022/03/02 11:39:13;;;;;;;17.52;15.02;;;9.60;83.90;;;;;;5070805;28;20040;-72
2022/03/02 11:41:42;;;;;;;21.15;16.23;;;9.50;80.50;;;;;;5068272;28;20043;-72
2022/03/02 11:44:37;;;;;;;23.30;16.17;;;9.70;88.00;;;;;;5069176;28;20524;-72
2022/03/02 11:47:04;;;;;;;21.05;16.40;;;9.70;87.90;;;;;;5066376;28;20064;-73
2022/03/02 11:49:48;;;;;;;18.80;15.45;;;9.80;87.40;;;;;;5069033;28;20441;-72
2022/03/02 11:52:19;;;;;;;18.95;15.85;;;9.70;85.80;;;;;;5061683;28;20051;-72
2022/03/02 11:54:49;;;;;;;20.67;16.25;;;9.90;86.00;;;;;;5064984;28;20106;-72
2022/03/02 11:57:18;;;;;;;21.02;15.70;;;9.70;83.70;;;;;;5064223;28;20028;-73
2022/03/02 11:59:45;;;;;;;18.20;15.52;;;9.80;85.80;;;;;;5083602;28;20119;-72
2022/03/02 12:02:15;;;;;;;20.90;15.68;;;9.80;84.10;;;;;;5082169;28;20052;-72
2022/03/02 12:04:57;;;;;;;25.08;16.92;;;9.70;81.30;;;;;;5059562;28;20040;-72
2022/03/02 12:07:24;;;;;;;22.73;16.05;;;9.60;82.40;;;;;;5065360;28;20097;-73
2022/03/02 12:09:49;;;;;;;20.50;16.45;;;9.70;83.40;;;;;;5065936;28;20040;-73
2022/03/02 12:12:20;;;;;;;22.10;17.50;;;9.80;83.60;;;;;;5068045;28;20123;-74
2022/03/02 12:14:50;;;;;;;20.33;16.83;;;9.90;88.10;;;;;;5067745;28;20048;-72
2022/03/02 12:17:28;;;;;;;19.42;15.60;;;10.00;84.20;;;;;;5066872;28;20036;-72
2022/03/02 12:19:58;;;;;;;21.30;15.77;;;9.90;81.50;;;;;;5066814;28;20491;-72
2022/03/02 12:22:46;;;;;;;19.50;15.02;;;10.10;83.50;;;;;;5067961;28;20407;-72
2022/03/02 12:25:13;;;;;;;20.95;16.13;;;10.20;85.00;;;;;;5067995;28;20040;-72
2022/03/02 12:27:41;;;;;;;21.52;17.08;;;10.20;82.30;;;;;;5065113;28;20109;-72
2022/03/02 12:30:10;;;;;;;20.92;17.60;;;10.10;81.80;;;;;;5065417;28;20040;-72
2022/03/02 12:32:42;;;;;;;19.58;16.20;;;10.10;81.90;;;;;;5062972;28;20612;-72
2022/03/02 12:35:10;;;;;;;24.10;16.85;;;10.10;83.80;;;;;;5066815;28;20048;-72
2022/03/02 12:37:36;;;;;;;19.52;15.95;;;10.10;85.70;;;;;;5066428;28;20041;-73
2022/03/02 12:40:09;;;;;;;19.35;16.60;;;10.10;82.00;;;;;;5067233;28;20032;-73